createdAt,value
2022-12-27T00:04:23.956Z,4.37
2022-12-27T00:09:25.618Z,3.25
2022-12-27T00:11:59.983Z,3.65
2022-12-27T00:14:31.401Z,2.90
2022-12-27T00:17:02.252Z,3.22
2022-12-27T00:19:33.373Z,2.80
2022-12-27T00:22:04.381Z,3.75
2022-12-27T00:24:36.775Z,4.60
2022-12-27T00:27:08.207Z,1.95
2022-12-27T00:29:39.114Z,4.00
2022-12-27T00:32:09.955Z,3.10
2022-12-27T00:34:41.343Z,3.45
2022-12-27T00:39:42.948Z,3.33
2022-12-27T00:42:14.356Z,3.30
2022-12-27T00:44:45.262Z,1.88
2022-12-27T00:47:16.166Z,2.15
2022-12-27T00:49:47.566Z,2.88
2022-12-27T00:52:19.350Z,2.55
2022-12-27T00:54:50.733Z,3.85
2022-12-27T00:57:21.905Z,4.15
2022-12-27T00:59:53.220Z,1.77
2022-12-27T01:04:56.118Z,2.83
2022-12-27T01:07:27.531Z,2.30
2022-12-27T01:09:58.449Z,3.13
2022-12-27T01:15:00.349Z,2.20
2022-12-27T01:17:33.191Z,1.65
2022-12-27T01:20:04.645Z,2.17
2022-12-27T01:22:35.824Z,2.20
2022-12-27T01:25:07.687Z,2.08
2022-12-27T01:27:38.587Z,2.70
2022-12-27T01:32:40.672Z,2.75
2022-12-27T01:35:11.862Z,3.70
2022-12-27T01:37:42.966Z,2.55
2022-12-27T01:40:14.856Z,2.78
2022-12-27T01:42:56.307Z,2.20
2022-12-27T01:48:01.554Z,1.95
2022-12-27T01:56:05.636Z,4.40
2022-12-27T01:58:59.065Z,1.40
2022-12-27T02:01:35.511Z,2.85
2022-12-27T02:04:13.032Z,3.05
2022-12-27T02:06:45.012Z,2.30
2022-12-27T02:09:50.337Z,2.47
2022-12-27T02:12:22.685Z,2.05
2022-12-27T02:14:54.306Z,3.90
2022-12-27T02:17:28.141Z,3.20
2022-12-27T02:20:13.967Z,2.50
2022-12-27T02:23:39.844Z,1.98
2022-12-27T02:26:44.880Z,2.60
2022-12-27T02:29:22.665Z,3.83
2022-12-27T02:32:07.271Z,1.92
2022-12-27T02:34:47.116Z,2.13
2022-12-27T02:37:18.330Z,2.63
2022-12-27T02:39:50.904Z,2.03
2022-12-27T02:42:40.519Z,1.88
2022-12-27T02:45:38.811Z,2.80
2022-12-27T02:48:32.005Z,2.38
2022-12-27T02:51:24.147Z,2.17
2022-12-27T02:54:26.052Z,2.53
2022-12-27T02:57:55.261Z,1.98
2022-12-27T03:00:45.430Z,2.88
2022-12-27T03:03:44.742Z,2.53
2022-12-27T03:06:43.542Z,4.25
2022-12-27T03:10:04.579Z,3.70
2022-12-27T03:13:00.235Z,3.00
2022-12-27T03:15:58.877Z,3.17
2022-12-27T03:18:33.174Z,5.47
2022-12-27T03:21:24.038Z,4.22
2022-12-27T03:24:16.146Z,4.30
2022-12-27T03:26:49.812Z,4.35
2022-12-27T03:29:40.201Z,4.10
2022-12-27T03:32:31.221Z,4.40
2022-12-27T03:35:14.763Z,4.47
2022-12-27T03:38:04.328Z,4.65
2022-12-27T03:41:26.247Z,3.92
2022-12-27T03:43:57.366Z,4.78
2022-12-27T03:46:36.238Z,6.45
2022-12-27T03:49:29.069Z,5.55
2022-12-27T03:52:33.877Z,4.43
2022-12-27T03:55:07.008Z,7.18
2022-12-27T03:57:38.623Z,6.22
2022-12-27T04:00:10.840Z,5.22
2022-12-27T04:02:44.547Z,4.78
2022-12-27T04:05:16.163Z,5.07
2022-12-27T04:08:05.195Z,6.18
2022-12-27T04:10:54.070Z,4.85
2022-12-27T04:13:43.591Z,4.05
2022-12-27T04:16:33.212Z,3.70
2022-12-27T04:19:22.220Z,4.00
2022-12-27T04:22:11.247Z,8.27
2022-12-27T04:25:00.821Z,4.38
2022-12-27T04:27:51.179Z,4.50
2022-12-27T04:30:40.626Z,7.75
2022-12-27T04:33:29.438Z,4.30
2022-12-27T04:36:05.974Z,4.63
2022-12-27T04:38:37.863Z,4.50
2022-12-27T04:41:26.796Z,2.88
2022-12-27T04:44:16.142Z,4.95
2022-12-27T04:47:05.109Z,4.43
2022-12-27T04:49:54.807Z,5.13
2022-12-27T04:52:44.701Z,4.38
2022-12-27T04:55:23.242Z,4.78
2022-12-27T04:57:55.091Z,4.53
2022-12-27T05:00:49.271Z,4.75
2022-12-27T05:03:23.342Z,5.25
2022-12-27T05:05:55.172Z,4.25
2022-12-27T05:08:46.412Z,5.03
2022-12-27T05:11:35.799Z,4.72
2022-12-27T05:14:10.990Z,3.65
2022-12-27T05:16:44.369Z,2.60
2022-12-27T05:19:16.970Z,5.78
2022-12-27T05:22:05.949Z,5.22
2022-12-27T05:24:55.529Z,6.40
2022-12-27T05:27:26.672Z,4.10
2022-12-27T05:29:57.613Z,6.75
2022-12-27T05:32:28.605Z,5.85
2022-12-27T05:34:59.799Z,5.80
2022-12-27T05:37:32.784Z,6.40
2022-12-27T05:42:34.391Z,4.72
2022-12-27T05:45:06.095Z,4.82
2022-12-27T05:47:37.132Z,5.95
2022-12-27T05:50:09.801Z,7.03
2022-12-27T05:52:41.503Z,4.18
2022-12-27T05:55:14.211Z,5.38
2022-12-27T05:57:46.271Z,7.50
2022-12-27T06:00:17.883Z,6.93
2022-12-27T06:02:49.958Z,8.27
2022-12-27T06:05:22.236Z,6.18
2022-12-27T06:07:54.323Z,5.88
2022-12-27T06:10:26.290Z,6.28
2022-12-27T06:12:58.592Z,5.70
2022-12-27T06:15:30.783Z,4.88
2022-12-27T06:18:05.408Z,4.45
2022-12-27T06:20:37.885Z,5.03
2022-12-27T06:23:09.064Z,6.78
2022-12-27T06:28:11.196Z,6.47
2022-12-27T06:30:42.124Z,6.18
2022-12-27T06:33:13.345Z,5.63
2022-12-27T06:38:15.228Z,4.50
2022-12-27T06:43:17.328Z,6.32
2022-12-27T06:46:01.067Z,6.18
2022-12-27T06:48:32.631Z,5.15
2022-12-27T06:51:09.860Z,6.50
2022-12-27T06:53:41.337Z,9.10
2022-12-27T06:56:20.596Z,7.70
2022-12-27T06:58:53.331Z,7.45
2022-12-27T07:01:27.052Z,7.25
2022-12-27T07:04:01.351Z,7.70
2022-12-27T07:06:33.590Z,7.30
2022-12-27T07:09:05.147Z,10.02
2022-12-27T07:11:37.392Z,10.10
2022-12-27T07:14:11.287Z,11.63
2022-12-27T07:16:45.691Z,10.93
2022-12-27T07:19:16.983Z,10.93
2022-12-27T07:21:48.564Z,12.55
2022-12-27T07:24:19.832Z,9.82
2022-12-27T07:26:51.264Z,7.72
2022-12-27T07:29:41.895Z,7.78
2022-12-27T07:32:16.562Z,6.55
2022-12-27T07:37:19.565Z,6.63
2022-12-27T07:39:50.989Z,5.25
2022-12-27T07:42:22.098Z,5.45
2022-12-27T07:44:53.205Z,4.28
2022-12-27T07:47:24.991Z,3.75
2022-12-27T07:49:56.132Z,3.92
2022-12-27T07:52:28.613Z,5.70
2022-12-27T07:55:00.052Z,5.32
2022-12-27T07:57:33.061Z,5.00
2022-12-27T08:00:05.876Z,5.80
2022-12-27T08:02:42.300Z,4.57
2022-12-27T08:05:13.303Z,4.63
2022-12-27T08:07:45.184Z,4.57
2022-12-27T08:10:16.375Z,4.13
2022-12-27T08:12:47.292Z,4.30
2022-12-27T08:15:18.489Z,3.58
2022-12-27T08:20:20.427Z,3.70
2022-12-27T08:22:51.400Z,5.00
2022-12-27T08:25:23.248Z,4.10
2022-12-27T08:27:54.544Z,3.25
2022-12-27T08:30:25.487Z,5.57
2022-12-27T08:32:56.593Z,8.05
2022-12-27T08:35:51.736Z,5.53
2022-12-27T08:38:19.777Z,6.68
2022-12-27T08:40:50.793Z,6.03
2022-12-27T08:43:22.333Z,3.88
2022-12-27T08:45:53.641Z,4.85
2022-12-27T08:48:25.129Z,7.13
2022-12-27T08:50:56.844Z,5.13
2022-12-27T08:53:28.293Z,4.97
2022-12-27T08:55:59.551Z,4.38
2022-12-27T09:01:09.684Z,4.00
2022-12-27T09:03:40.998Z,6.35
2022-12-27T09:06:15.679Z,5.90
2022-12-27T09:08:48.455Z,5.07
2022-12-27T09:11:22.358Z,6.93
2022-12-27T09:13:53.815Z,10.18
2022-12-27T09:16:26.971Z,9.52
2022-12-27T09:19:01.103Z,7.45
2022-12-27T09:21:35.396Z,6.35
2022-12-27T09:24:06.897Z,7.38
2022-12-27T09:29:08.714Z,6.75
2022-12-27T09:31:39.632Z,8.45
2022-12-27T09:34:12.899Z,12.10
2022-12-27T09:36:45.276Z,10.85
2022-12-27T09:39:18.535Z,18.80
2022-12-27T09:45:45.853Z,8.18
2022-12-27T09:48:18.239Z,7.68
2022-12-27T09:50:57.139Z,5.22
2022-12-27T09:53:53.926Z,4.88
2022-12-27T09:56:54.094Z,7.45
2022-12-27T09:59:29.509Z,8.23
2022-12-27T10:02:01.645Z,12.95
2022-12-27T10:05:17.964Z,13.23
2022-12-27T10:07:46.459Z,9.43
2022-12-27T10:10:23.586Z,11.40
2022-12-27T10:13:04.923Z,7.28
2022-12-27T10:16:02.547Z,4.72
2022-12-27T10:18:51.921Z,5.88
2022-12-27T10:21:28.316Z,6.53
2022-12-27T10:24:21.972Z,8.35
2022-12-27T10:26:55.887Z,6.72
2022-12-27T10:29:28.572Z,7.10
2022-12-27T10:31:59.917Z,6.50
2022-12-27T10:34:31.149Z,5.50
2022-12-27T10:37:02.239Z,8.05
2022-12-27T10:39:35.264Z,9.52
2022-12-27T10:42:38.663Z,10.10
2022-12-27T10:45:34.811Z,8.82
2022-12-27T10:48:19.070Z,8.55
2022-12-27T10:50:58.670Z,6.32
2022-12-27T10:53:40.908Z,7.07
2022-12-27T10:56:40.596Z,7.70
2022-12-27T10:59:19.940Z,7.18
2022-12-27T11:02:03.535Z,5.20
2022-12-27T11:04:36.032Z,6.15
2022-12-27T11:09:46.389Z,7.97
2022-12-27T11:12:33.676Z,5.95
2022-12-27T11:15:08.026Z,6.25
2022-12-27T11:17:43.091Z,5.38
2022-12-27T11:20:14.170Z,9.32
2022-12-27T11:22:52.611Z,6.80
2022-12-27T11:25:23.906Z,5.38
2022-12-27T11:28:03.041Z,7.78
2022-12-27T11:30:42.463Z,6.18
2022-12-27T11:33:26.902Z,6.07
2022-12-27T11:35:58.902Z,5.88
2022-12-27T11:41:30.918Z,4.78
2022-12-27T11:44:05.055Z,5.82
2022-12-27T11:46:47.585Z,5.88
2022-12-27T11:49:23.906Z,4.32
2022-12-27T11:52:24.511Z,6.10
2022-12-27T11:55:06.406Z,4.47
2022-12-27T11:58:01.930Z,4.65
2022-12-27T12:00:41.669Z,4.45
2022-12-27T12:03:35.742Z,4.32
2022-12-27T12:06:44.001Z,3.17
2022-12-27T12:09:20.752Z,5.82
2022-12-27T12:12:14.328Z,3.33
2022-12-27T12:17:39.381Z,4.15
2022-12-27T12:20:25.388Z,3.47
2022-12-27T12:23:06.601Z,4.90
2022-12-27T12:26:03.659Z,4.32
2022-12-27T12:29:00.753Z,3.72
2022-12-27T12:31:57.410Z,4.15
2022-12-27T12:34:58.939Z,3.25
2022-12-27T12:38:06.322Z,3.53
2022-12-27T12:40:55.532Z,3.95
2022-12-27T12:43:44.574Z,3.47
2022-12-27T12:46:25.959Z,3.22
2022-12-27T12:49:33.538Z,4.37
2022-12-27T12:52:31.447Z,3.65
2022-12-27T12:55:20.388Z,4.10
2022-12-27T12:58:18.982Z,4.30
2022-12-27T13:01:05.154Z,3.88
2022-12-27T13:03:57.504Z,6.05
2022-12-27T13:06:40.468Z,2.42
2022-12-27T13:09:17.535Z,4.85
2022-12-27T13:12:03.484Z,3.97
2022-12-27T13:14:48.249Z,4.28
2022-12-27T13:17:30.513Z,3.85
2022-12-27T13:20:25.929Z,5.20
2022-12-27T13:23:16.303Z,4.57
2022-12-27T13:26:05.894Z,4.50
2022-12-27T13:29:20.593Z,5.45
2022-12-27T13:32:09.833Z,3.50
2022-12-27T13:34:41.127Z,3.10
2022-12-27T13:37:39.590Z,2.97
2022-12-27T13:40:25.583Z,3.05
2022-12-27T13:42:56.918Z,3.33
2022-12-27T13:45:50.997Z,3.22
2022-12-27T13:48:42.378Z,3.53
2022-12-27T13:51:49.725Z,4.00
2022-12-27T13:54:43.998Z,3.85
2022-12-27T13:57:37.863Z,2.28
2022-12-27T14:00:12.335Z,2.78
2022-12-27T14:02:55.279Z,4.38
2022-12-27T14:05:47.657Z,3.78
2022-12-27T14:09:01.524Z,3.15
2022-12-27T14:12:02.964Z,6.65
2022-12-27T14:14:36.459Z,4.25
2022-12-27T14:17:39.548Z,3.60
2022-12-27T14:20:19.396Z,3.20
2022-12-27T14:23:02.696Z,3.22
2022-12-27T14:25:49.158Z,2.60
2022-12-27T14:28:43.454Z,5.00
2022-12-27T14:31:30.063Z,2.60
2022-12-27T14:34:23.604Z,3.08
2022-12-27T14:37:09.228Z,3.17
2022-12-27T14:40:13.768Z,2.55
2022-12-27T14:43:03.558Z,1.98
2022-12-27T14:45:57.708Z,4.43
2022-12-27T14:48:34.955Z,5.55
2022-12-27T14:51:59.378Z,4.75
2022-12-27T14:54:47.833Z,5.00
2022-12-27T14:57:27.476Z,3.97
2022-12-27T15:00:22.016Z,3.58
2022-12-27T15:03:17.543Z,5.40
2022-12-27T15:06:13.569Z,5.43
2022-12-27T15:09:15.667Z,4.10
2022-12-27T15:12:21.649Z,3.05
2022-12-27T15:15:22.928Z,3.85
2022-12-27T15:18:12.071Z,1.80
2022-12-27T15:20:42.872Z,4.32
2022-12-27T15:23:34.619Z,4.17
2022-12-27T15:26:14.499Z,4.47
2022-12-27T15:29:12.269Z,2.88
2022-12-27T15:32:24.283Z,2.85
2022-12-27T15:35:16.850Z,4.60
2022-12-27T15:38:03.282Z,2.55
2022-12-27T15:40:37.311Z,2.85
2022-12-27T15:43:42.247Z,4.22
2022-12-27T15:46:22.304Z,4.20
2022-12-27T15:49:13.797Z,4.78
2022-12-27T15:52:00.384Z,4.20
2022-12-27T15:54:57.876Z,3.42
2022-12-27T15:57:45.777Z,2.75
2022-12-27T16:00:33.383Z,3.03
2022-12-27T16:03:26.479Z,3.53
2022-12-27T16:05:58.456Z,4.55
2022-12-27T16:08:42.238Z,2.75
2022-12-27T16:11:15.076Z,4.88
2022-12-27T16:13:51.093Z,4.13
2022-12-27T16:16:31.601Z,3.28
2022-12-27T16:19:41.034Z,3.47
2022-12-27T16:22:33.225Z,3.85
2022-12-27T16:25:30.273Z,4.93
2022-12-27T16:28:18.271Z,4.18
2022-12-27T16:30:54.281Z,3.10
2022-12-27T16:33:32.603Z,5.88
2022-12-27T16:36:18.744Z,4.32
2022-12-27T16:39:02.226Z,5.38
2022-12-27T16:41:42.493Z,2.78
2022-12-27T16:44:16.678Z,5.38
2022-12-27T16:46:50.760Z,3.15
2022-12-27T16:49:57.069Z,4.05
2022-12-27T16:52:36.600Z,3.95
2022-12-27T16:55:42.158Z,5.28
2022-12-27T16:58:25.798Z,2.75
2022-12-27T17:00:58.970Z,2.63
2022-12-27T17:03:39.844Z,5.00
2022-12-27T17:06:34.792Z,3.65
2022-12-27T17:09:12.693Z,4.05
2022-12-27T17:12:04.159Z,2.95
2022-12-27T17:14:37.984Z,5.88
2022-12-27T17:17:22.245Z,1.80
2022-12-27T17:19:58.616Z,2.30
2022-12-27T17:22:35.108Z,3.70
2022-12-27T17:25:07.295Z,2.83
2022-12-27T17:27:59.308Z,2.65
2022-12-27T17:30:38.934Z,3.83
2022-12-27T17:33:33.343Z,3.88
2022-12-27T17:36:11.019Z,5.80
2022-12-27T17:39:06.333Z,2.25
2022-12-27T17:42:22.402Z,4.07
2022-12-27T17:45:11.300Z,2.67
2022-12-27T17:47:49.819Z,1.70
2022-12-27T17:50:27.967Z,4.05
2022-12-27T17:53:31.319Z,2.25
2022-12-27T17:56:21.934Z,4.25
2022-12-27T17:58:58.039Z,2.38
2022-12-27T18:01:33.387Z,3.15
2022-12-27T18:04:06.199Z,2.40
2022-12-27T18:06:38.944Z,3.47
2022-12-27T18:09:09.990Z,3.05
2022-12-27T18:11:43.882Z,2.75
2022-12-27T18:14:16.159Z,2.63
2022-12-27T18:16:47.472Z,2.50
2022-12-27T18:19:22.771Z,2.28
2022-12-27T18:22:00.194Z,4.13
2022-12-27T18:24:34.461Z,1.38
2022-12-27T18:27:08.400Z,1.85
2022-12-27T18:29:39.447Z,1.88
2022-12-27T18:32:12.156Z,2.35
2022-12-27T18:34:56.445Z,3.80
2022-12-27T18:37:28.701Z,2.47
2022-12-27T18:40:02.143Z,2.25
2022-12-27T18:42:37.115Z,1.92
2022-12-27T18:45:30.973Z,2.38
2022-12-27T18:48:03.658Z,1.52
2022-12-27T18:50:37.023Z,3.70
2022-12-27T18:53:24.153Z,1.95
2022-12-27T18:56:02.946Z,0.60
2022-12-27T18:58:34.975Z,2.97
2022-12-27T19:01:29.169Z,1.23
2022-12-27T19:04:19.146Z,3.45
2022-12-27T19:07:14.652Z,4.22
2022-12-27T19:09:53.286Z,2.25
2022-12-27T19:12:30.888Z,2.80
2022-12-27T19:15:19.557Z,2.25
2022-12-27T19:17:53.857Z,1.00
2022-12-27T19:20:36.685Z,1.13
2022-12-27T19:23:26.877Z,2.70
2022-12-27T19:26:18.432Z,0.73
2022-12-27T19:29:16.166Z,1.92
2022-12-27T19:32:07.955Z,1.35
2022-12-27T19:34:49.757Z,1.95
2022-12-27T19:37:21.191Z,2.70
2022-12-27T19:39:52.263Z,2.15
2022-12-27T19:42:31.182Z,2.28
2022-12-27T19:45:03.253Z,1.73
2022-12-27T19:47:37.328Z,3.13
2022-12-27T19:50:08.779Z,2.33
2022-12-27T19:52:40.624Z,1.58
2022-12-27T19:55:18.872Z,1.48
2022-12-27T19:57:50.077Z,2.42
2022-12-27T20:00:22.244Z,1.73
2022-12-27T20:02:53.368Z,3.13
2022-12-27T20:06:13.328Z,1.30
2022-12-27T20:08:22.137Z,1.65
2022-12-27T20:10:53.574Z,3.03
2022-12-27T20:13:26.106Z,1.15
2022-12-27T20:15:59.891Z,1.38
2022-12-27T20:18:30.981Z,1.25
2022-12-27T20:21:02.213Z,1.15
2022-12-27T20:23:33.692Z,1.45
2022-12-27T20:26:05.000Z,2.22
2022-12-27T20:28:36.571Z,1.27
2022-12-27T20:31:13.043Z,2.05
2022-12-27T20:33:44.491Z,2.08
2022-12-27T20:36:15.653Z,1.67
2022-12-27T20:38:46.728Z,1.92
2022-12-27T20:41:20.734Z,2.90
2022-12-27T20:43:59.084Z,0.82
2022-12-27T20:46:30.158Z,1.13
2022-12-27T20:49:02.071Z,3.38
2022-12-27T20:51:36.159Z,2.78
2022-12-27T20:54:07.882Z,1.52
2022-12-27T20:59:09.666Z,1.83
2022-12-27T21:01:40.778Z,3.17
2022-12-27T21:04:12.363Z,2.22
2022-12-27T21:06:43.698Z,1.40
2022-12-27T21:09:15.042Z,1.60
2022-12-27T21:11:46.557Z,1.58
2022-12-27T21:14:17.610Z,1.77
2022-12-27T21:16:49.281Z,2.47
2022-12-27T21:19:21.084Z,1.80
2022-12-27T21:21:52.263Z,2.22
2022-12-27T21:26:56.556Z,3.30
2022-12-27T21:29:27.789Z,2.50
2022-12-27T21:31:58.767Z,4.28
2022-12-27T21:34:29.991Z,5.07
2022-12-27T21:37:05.428Z,4.28
2022-12-27T21:39:40.161Z,2.50
2022-12-27T21:42:12.481Z,2.30
2022-12-27T21:44:43.945Z,2.35
2022-12-27T21:47:15.073Z,2.65
2022-12-27T21:52:16.647Z,2.30
2022-12-27T21:54:47.631Z,3.78
2022-12-27T21:57:19.039Z,1.85
2022-12-27T21:59:50.162Z,3.33
2022-12-27T22:02:21.322Z,1.05
2022-12-27T22:07:22.603Z,1.73
2022-12-27T22:09:53.663Z,2.30
2022-12-27T22:12:24.778Z,2.53
2022-12-27T22:14:56.236Z,3.42
2022-12-27T22:17:27.874Z,2.58
2022-12-27T22:19:58.778Z,2.65
2022-12-27T22:22:30.049Z,2.17
2022-12-27T22:25:01.003Z,1.35
2022-12-27T22:27:32.826Z,2.25
2022-12-27T22:30:03.840Z,2.97
2022-12-27T22:32:35.120Z,2.80
2022-12-27T22:35:06.272Z,3.35
2022-12-27T22:37:37.139Z,2.80
2022-12-27T22:40:36.674Z,3.05
2022-12-27T22:43:00.124Z,3.78
2022-12-27T22:45:31.343Z,1.95
2022-12-27T22:50:32.703Z,3.10
2022-12-27T22:53:04.005Z,2.70
2022-12-27T22:58:05.429Z,2.15
2022-12-27T23:03:07.804Z,2.78
2022-12-27T23:05:39.167Z,1.88
2022-12-27T23:08:10.282Z,4.45
2022-12-27T23:10:41.119Z,2.08
2022-12-27T23:15:42.723Z,3.95
2022-12-27T23:18:14.348Z,2.45
2022-12-27T23:21:21.165Z,4.53
2022-12-27T23:23:38.323Z,3.95
2022-12-27T23:26:20.505Z,4.28
2022-12-27T23:28:53.698Z,1.80
2022-12-27T23:31:26.759Z,2.72
2022-12-27T23:33:58.355Z,3.38
2022-12-27T23:36:29.602Z,3.55
2022-12-27T23:39:00.858Z,3.33
2022-12-27T23:41:32.195Z,3.97
2022-12-27T23:44:03.480Z,3.85
2022-12-27T23:46:36.632Z,3.33
2022-12-27T23:49:07.587Z,4.32
2022-12-27T23:51:39.020Z,3.03
2022-12-27T23:56:40.811Z,2.40
2022-12-27T23:59:13.099Z,2.65
